sensor_id;sensor_type;location;lat;lon;timestamp;pressure;altitude;pressure_sealevel;temperature;humidity
42111;BME280;27766;52.174;5.456;2023-04-27T00:01:05;102048.56;;;3.88;100.00
42111;BME280;27766;52.174;5.456;2023-04-27T00:03:35;102047.31;;;3.81;100.00
42111;BME280;27766;52.174;5.456;2023-04-27T00:06:03;102059.34;;;3.82;100.00
42111;BME280;27766;52.174;5.456;2023-04-27T00:08:30;102065.53;;;3.86;100.00
42111;BME280;27766;52.174;5.456;2023-04-27T00:10:58;102063.38;;;3.78;100.00
42111;BME280;27766;52.174;5.456;2023-04-27T00:13:26;102064.47;;;3.82;100.00
42111;BME280;27766;52.174;5.456;2023-04-27T00:15:53;102068.59;;;3.80;100.00
42111;BME280;27766;52.174;5.456;2023-04-27T00:18:21;102066.41;;;3.86;100.00
42111;BME280;27766;52.174;5.456;2023-04-27T00:20:48;102060.41;;;3.86;100.00
42111;BME280;27766;52.174;5.456;2023-04-27T00:23:15;102063.47;;;3.93;100.00
42111;BME280;27766;52.174;5.456;2023-04-27T00:25:42;102065.53;;;3.86;100.00
42111;BME280;27766;52.174;5.456;2023-04-27T00:28:09;102067.31;;;3.87;100.00
42111;BME280;27766;52.174;5.456;2023-04-27T00:30:36;102056.16;;;3.73;100.00
42111;BME280;27766;52.174;5.456;2023-04-27T00:33:03;102063.84;;;3.73;100.00
42111;BME280;27766;52.174;5.456;2023-04-27T00:35:31;102062.16;;;3.73;100.00
42111;BME280;27766;52.174;5.456;2023-04-27T00:37:59;102057.81;;;3.72;100.00
42111;BME280;27766;52.174;5.456;2023-04-27T00:40:26;102045.84;;;3.71;100.00
42111;BME280;27766;52.174;5.456;2023-04-27T00:42:53;102064.03;;;3.76;100.00
42111;BME280;27766;52.174;5.456;2023-04-27T00:45:21;102053.91;;;3.77;100.00
42111;BME280;27766;52.174;5.456;2023-04-27T00:47:48;102055.25;;;3.72;100.00
42111;BME280;27766;52.174;5.456;2023-04-27T00:50:16;102047.47;;;3.57;100.00
42111;BME280;27766;52.174;5.456;2023-04-27T00:52:48;102058.81;;;3.61;100.00
42111;BME280;27766;52.174;5.456;2023-04-27T00:55:15;102063.53;;;3.55;100.00
42111;BME280;27766;52.174;5.456;2023-04-27T00:57:42;102067.19;;;3.58;100.00
42111;BME280;27766;52.174;5.456;2023-04-27T01:00:10;102065.88;;;3.52;100.00
42111;BME280;27766;52.174;5.456;2023-04-27T01:02:37;102067.34;;;3.48;100.00
42111;BME280;27766;52.174;5.456;2023-04-27T01:05:06;102066.63;;;3.37;100.00
42111;BME280;27766;52.174;5.456;2023-04-27T01:07:38;102058.94;;;3.37;100.00
42111;BME280;27766;52.174;5.456;2023-04-27T01:10:06;102056.19;;;3.34;100.00
42111;BME280;27766;52.174;5.456;2023-04-27T01:12:33;102051.97;;;3.35;100.00
42111;BME280;27766;52.174;5.456;2023-04-27T01:15:00;102037.06;;;3.29;100.00
42111;BME280;27766;52.174;5.456;2023-04-27T01:17:28;102048.09;;;3.28;100.00
42111;BME280;27766;52.174;5.456;2023-04-27T01:19:55;102042.97;;;3.28;100.00
42111;BME280;27766;52.174;5.456;2023-04-27T01:22:22;102052.53;;;3.30;100.00
42111;BME280;27766;52.174;5.456;2023-04-27T01:24:50;102047.91;;;3.25;100.00
42111;BME280;27766;52.174;5.456;2023-04-27T01:27:17;102049.84;;;3.15;100.00
42111;BME280;27766;52.174;5.456;2023-04-27T01:29:44;102067.66;;;3.14;100.00
42111;BME280;27766;52.174;5.456;2023-04-27T01:32:12;102056.50;;;3.13;100.00
42111;BME280;27766;52.174;5.456;2023-04-27T01:34:39;102059.16;;;3.15;100.00
42111;BME280;27766;52.174;5.456;2023-04-27T01:37:06;102053.53;;;3.07;100.00
42111;BME280;27766;52.174;5.456;2023-04-27T01:39:34;102059.28;;;3.16;100.00
42111;BME280;27766;52.174;5.456;2023-04-27T01:42:01;102051.50;;;3.15;100.00
42111;BME280;27766;52.174;5.456;2023-04-27T01:44:29;102053.09;;;3.13;100.00
42111;BME280;27766;52.174;5.456;2023-04-27T01:46:56;102048.94;;;3.15;100.00
42111;BME280;27766;52.174;5.456;2023-04-27T01:49:24;102037.50;;;3.10;100.00
42111;BME280;27766;52.174;5.456;2023-04-27T01:51:51;102041.16;;;3.13;100.00
42111;BME280;27766;52.174;5.456;2023-04-27T01:54:18;102038.69;;;3.15;100.00
42111;BME280;27766;52.174;5.456;2023-04-27T01:56:45;102036.81;;;3.12;100.00
42111;BME280;27766;52.174;5.456;2023-04-27T01:59:13;102032.72;;;3.14;100.00
42111;BME280;27766;52.174;5.456;2023-04-27T02:01:40;102036.63;;;3.09;100.00
42111;BME280;27766;52.174;5.456;2023-04-27T02:04:07;102027.97;;;3.07;100.00
42111;BME280;27766;52.174;5.456;2023-04-27T02:06:35;102039.34;;;2.99;100.00
42111;BME280;27766;52.174;5.456;2023-04-27T02:09:02;102046.78;;;2.96;100.00
42111;BME280;27766;52.174;5.456;2023-04-27T02:11:29;102037.16;;;2.92;100.00
42111;BME280;27766;52.174;5.456;2023-04-27T02:13:56;102042.34;;;2.93;100.00
42111;BME280;27766;52.174;5.456;2023-04-27T02:16:23;102031.13;;;2.91;100.00
42111;BME280;27766;52.174;5.456;2023-04-27T02:18:50;102033.59;;;2.90;100.00
42111;BME280;27766;52.174;5.456;2023-04-27T02:21:19;102040.59;;;2.92;100.00
42111;BME280;27766;52.174;5.456;2023-04-27T02:23:47;102045.59;;;2.91;100.00
42111;BME280;27766;52.174;5.456;2023-04-27T02:26:17;102047.16;;;2.89;100.00
42111;BME280;27766;52.174;5.456;2023-04-27T02:28:48;102030.31;;;2.79;100.00
42111;BME280;27766;52.174;5.456;2023-04-27T02:31:16;102034.19;;;2.85;100.00
42111;BME280;27766;52.174;5.456;2023-04-27T02:33:43;102039.63;;;2.90;100.00
42111;BME280;27766;52.174;5.456;2023-04-27T02:36:10;102024.19;;;2.77;100.00
42111;BME280;27766;52.174;5.456;2023-04-27T02:38:41;102030.31;;;2.79;100.00
42111;BME280;27766;52.174;5.456;2023-04-27T02:41:08;102021.63;;;2.77;100.00
42111;BME280;27766;52.174;5.456;2023-04-27T02:43:35;102027.59;;;2.64;100.00
42111;BME280;27766;52.174;5.456;2023-04-27T02:46:03;102025.50;;;2.58;100.00
42111;BME280;27766;52.174;5.456;2023-04-27T02:48:30;102025.84;;;2.51;100.00
42111;BME280;27766;52.174;5.456;2023-04-27T02:50:57;102021.09;;;2.44;100.00
42111;BME280;27766;52.174;5.456;2023-04-27T02:53:24;102023.41;;;2.41;100.00
42111;BME280;27766;52.174;5.456;2023-04-27T02:55:52;102017.88;;;2.34;100.00
42111;BME280;27766;52.174;5.456;2023-04-27T02:58:19;102017.66;;;2.31;100.00
42111;BME280;27766;52.174;5.456;2023-04-27T03:00:46;102020.97;;;2.30;100.00
42111;BME280;27766;52.174;5.456;2023-04-27T03:03:14;102021.53;;;2.38;100.00
42111;BME280;27766;52.174;5.456;2023-04-27T03:05:42;102020.66;;;2.37;100.00
42111;BME280;27766;52.174;5.456;2023-04-27T03:08:09;102023.31;;;2.39;100.00
42111;BME280;27766;52.174;5.456;2023-04-27T03:10:36;102027.75;;;2.42;100.00
42111;BME280;27766;52.174;5.456;2023-04-27T03:13:03;102020.22;;;2.31;100.00
42111;BME280;27766;52.174;5.456;2023-04-27T03:15:32;102009.81;;;2.16;100.00
42111;BME280;27766;52.174;5.456;2023-04-27T03:17:59;102028.56;;;2.17;100.00
42111;BME280;27766;52.174;5.456;2023-04-27T03:20:26;102027.91;;;2.08;100.00
42111;BME280;27766;52.174;5.456;2023-04-27T03:22:53;102028.22;;;2.12;100.00
42111;BME280;27766;52.174;5.456;2023-04-27T03:25:21;102035.78;;;2.11;100.00
42111;BME280;27766;52.174;5.456;2023-04-27T03:27:48;102037.00;;;2.04;100.00
42111;BME280;27766;52.174;5.456;2023-04-27T03:30:15;102042.00;;;2.02;100.00
42111;BME280;27766;52.174;5.456;2023-04-27T03:32:42;102046.78;;;1.98;100.00
42111;BME280;27766;52.174;5.456;2023-04-27T03:35:13;102035.56;;;1.96;100.00
42111;BME280;27766;52.174;5.456;2023-04-27T03:37:40;102034.59;;;1.94;100.00
42111;BME280;27766;52.174;5.456;2023-04-27T03:40:07;102015.59;;;1.90;100.00
42111;BME280;27766;52.174;5.456;2023-04-27T03:42:35;102022.03;;;1.97;100.00
42111;BME280;27766;52.174;5.456;2023-04-27T03:45:02;102029.47;;;2.05;100.00
42111;BME280;27766;52.174;5.456;2023-04-27T03:47:30;102025.81;;;2.02;100.00
42111;BME280;27766;52.174;5.456;2023-04-27T03:49:57;102029.25;;;2.02;100.00
42111;BME280;27766;52.174;5.456;2023-04-27T03:52:24;102035.25;;;2.03;100.00
42111;BME280;27766;52.174;5.456;2023-04-27T03:54:52;102023.38;;;2.03;100.00
42111;BME280;27766;52.174;5.456;2023-04-27T03:57:19;102034.00;;;2.10;100.00
42111;BME280;27766;52.174;5.456;2023-04-27T03:59:46;102030.25;;;2.04;100.00
42111;BME280;27766;52.174;5.456;2023-04-27T04:02:13;102027.47;;;2.01;100.00
42111;BME280;27766;52.174;5.456;2023-04-27T04:04:41;102036.13;;;2.03;100.00
42111;BME280;27766;52.174;5.456;2023-04-27T04:07:08;102041.13;;;2.02;100.00
42111;BME280;27766;52.174;5.456;2023-04-27T04:09:35;102039.03;;;1.96;100.00
42111;BME280;27766;52.174;5.456;2023-04-27T04:12:03;102042.25;;;1.94;100.00
42111;BME280;27766;52.174;5.456;2023-04-27T04:14:30;102042.59;;;1.86;100.00
42111;BME280;27766;52.174;5.456;2023-04-27T04:16:57;102042.34;;;1.83;100.00
42111;BME280;27766;52.174;5.456;2023-04-27T04:19:24;102041.56;;;1.84;100.00
42111;BME280;27766;52.174;5.456;2023-04-27T04:21:52;102044.13;;;1.84;100.00
42111;BME280;27766;52.174;5.456;2023-04-27T04:24:20;102042.44;;;1.85;100.00
42111;BME280;27766;52.174;5.456;2023-04-27T04:26:47;102049.13;;;1.83;100.00
42111;BME280;27766;52.174;5.456;2023-04-27T04:29:14;102053.13;;;1.79;100.00
42111;BME280;27766;52.174;5.456;2023-04-27T04:31:42;102054.44;;;1.74;100.00
42111;BME280;27766;52.174;5.456;2023-04-27T04:34:10;102060.31;;;1.73;100.00
42111;BME280;27766;52.174;5.456;2023-04-27T04:36:37;102062.66;;;1.70;100.00
42111;BME280;27766;52.174;5.456;2023-04-27T04:39:05;102067.75;;;1.70;100.00
42111;BME280;27766;52.174;5.456;2023-04-27T04:41:32;102043.22;;;1.48;100.00
42111;BME280;27766;52.174;5.456;2023-04-27T04:44:00;102070.41;;;1.60;100.00
42111;BME280;27766;52.174;5.456;2023-04-27T04:46:27;102072.78;;;1.68;100.00
42111;BME280;27766;52.174;5.456;2023-04-27T04:48:57;102075.94;;;1.66;100.00
42111;BME280;27766;52.174;5.456;2023-04-27T04:51:25;102076.44;;;1.72;100.00
42111;BME280;27766;52.174;5.456;2023-04-27T04:53:52;102072.22;;;1.84;100.00
42111;BME280;27766;52.174;5.456;2023-04-27T04:56:19;102074.19;;;1.88;100.00
42111;BME280;27766;52.174;5.456;2023-04-27T04:58:47;102079.44;;;1.90;100.00
42111;BME280;27766;52.174;5.456;2023-04-27T05:01:14;102067.56;;;1.90;100.00
42111;BME280;27766;52.174;5.456;2023-04-27T05:03:41;102068.13;;;1.98;100.00
42111;BME280;27766;52.174;5.456;2023-04-27T05:06:09;102067.13;;;2.08;100.00
42111;BME280;27766;52.174;5.456;2023-04-27T05:08:36;102066.00;;;2.16;100.00
42111;BME280;27766;52.174;5.456;2023-04-27T05:11:03;102069.34;;;2.27;100.00
42111;BME280;27766;52.174;5.456;2023-04-27T05:13:30;102071.63;;;2.36;100.00
42111;BME280;27766;52.174;5.456;2023-04-27T05:15:57;102053.97;;;2.39;100.00
42111;BME280;27766;52.174;5.456;2023-04-27T05:18:25;102071.72;;;2.49;100.00
42111;BME280;27766;52.174;5.456;2023-04-27T05:20:52;102073.97;;;2.57;100.00
42111;BME280;27766;52.174;5.456;2023-04-27T05:23:19;102058.63;;;2.57;100.00
42111;BME280;27766;52.174;5.456;2023-04-27T05:25:46;102067.13;;;2.69;100.00
42111;BME280;27766;52.174;5.456;2023-04-27T05:28:13;102059.09;;;2.76;100.00
42111;BME280;27766;52.174;5.456;2023-04-27T05:30:41;102067.66;;;2.77;100.00
42111;BME280;27766;52.174;5.456;2023-04-27T05:33:08;102076.66;;;2.83;100.00
42111;BME280;27766;52.174;5.456;2023-04-27T05:35:36;102081.19;;;2.88;100.00
42111;BME280;27766;52.174;5.456;2023-04-27T05:38:03;102062.50;;;2.89;100.00
42111;BME280;27766;52.174;5.456;2023-04-27T05:40:30;102085.13;;;3.08;100.00
42111;BME280;27766;52.174;5.456;2023-04-27T05:42:58;102087.31;;;3.15;100.00
42111;BME280;27766;52.174;5.456;2023-04-27T05:45:27;102083.97;;;3.16;100.00
42111;BME280;27766;52.174;5.456;2023-04-27T05:47:54;102084.13;;;3.31;100.00
42111;BME280;27766;52.174;5.456;2023-04-27T05:50:21;102070.97;;;3.38;100.00
42111;BME280;27766;52.174;5.456;2023-04-27T05:52:49;102087.34;;;3.54;100.00
42111;BME280;27766;52.174;5.456;2023-04-27T05:55:16;102084.03;;;3.68;100.00
42111;BME280;27766;52.174;5.456;2023-04-27T05:57:43;102080.47;;;3.79;100.00
42111;BME280;27766;52.174;5.456;2023-04-27T06:00:16;102079.91;;;3.97;100.00
42111;BME280;27766;52.174;5.456;2023-04-27T06:02:43;102072.91;;;4.08;100.00
42111;BME280;27766;52.174;5.456;2023-04-27T06:05:10;102080.34;;;4.17;100.00
42111;BME280;27766;52.174;5.456;2023-04-27T06:07:38;102083.84;;;4.19;100.00
42111;BME280;27766;52.174;5.456;2023-04-27T06:10:05;102086.91;;;4.40;100.00
42111;BME280;27766;52.174;5.456;2023-04-27T06:12:34;102083.81;;;4.59;100.00
42111;BME280;27766;52.174;5.456;2023-04-27T06:15:01;102084.69;;;4.73;100.00
42111;BME280;27766;52.174;5.456;2023-04-27T06:17:35;102077.72;;;4.85;100.00
42111;BME280;27766;52.174;5.456;2023-04-27T06:20:05;102073.88;;;4.92;100.00
42111;BME280;27766;52.174;5.456;2023-04-27T06:22:34;102072.03;;;5.04;100.00
42111;BME280;27766;52.174;5.456;2023-04-27T06:25:04;102064.69;;;5.11;100.00
42111;BME280;27766;52.174;5.456;2023-04-27T06:27:32;102074.94;;;5.24;100.00
42111;BME280;27766;52.174;5.456;2023-04-27T06:29:59;102068.38;;;5.29;100.00
42111;BME280;27766;52.174;5.456;2023-04-27T06:32:27;102084.41;;;5.40;100.00
42111;BME280;27766;52.174;5.456;2023-04-27T06:34:54;102087.97;;;5.57;100.00
42111;BME280;27766;52.174;5.456;2023-04-27T06:37:22;102084.69;;;5.60;100.00
42111;BME280;27766;52.174;5.456;2023-04-27T06:39:50;102097.63;;;5.76;100.00
42111;BME280;27766;52.174;5.456;2023-04-27T06:42:17;102100.22;;;5.61;100.00
42111;BME280;27766;52.174;5.456;2023-04-27T06:44:44;102100.56;;;5.67;100.00
42111;BME280;27766;52.174;5.456;2023-04-27T06:47:12;102095.88;;;5.90;100.00
42111;BME280;27766;52.174;5.456;2023-04-27T06:49:39;102084.16;;;5.95;100.00
42111;BME280;27766;52.174;5.456;2023-04-27T06:52:06;102093.63;;;5.96;100.00
42111;BME280;27766;52.174;5.456;2023-04-27T06:54:33;102091.16;;;6.13;100.00
42111;BME280;27766;52.174;5.456;2023-04-27T06:57:01;102085.13;;;6.27;100.00
42111;BME280;27766;52.174;5.456;2023-04-27T06:59:29;102090.88;;;6.55;100.00
42111;BME280;27766;52.174;5.456;2023-04-27T07:01:56;102086.28;;;6.80;100.00
42111;BME280;27766;52.174;5.456;2023-04-27T07:04:26;102075.09;;;6.96;100.00
42111;BME280;27766;52.174;5.456;2023-04-27T07:06:54;102074.44;;;7.17;100.00
42111;BME280;27766;52.174;5.456;2023-04-27T07:09:22;102087.94;;;7.46;100.00
42111;BME280;27766;52.174;5.456;2023-04-27T07:11:54;102094.75;;;7.62;100.00
42111;BME280;27766;52.174;5.456;2023-04-27T07:14:21;102085.19;;;7.78;100.00
42111;BME280;27766;52.174;5.456;2023-04-27T07:16:48;102095.81;;;8.02;100.00
42111;BME280;27766;52.174;5.456;2023-04-27T07:19:16;102093.91;;;8.16;100.00
42111;BME280;27766;52.174;5.456;2023-04-27T07:21:43;102090.28;;;8.30;100.00
42111;BME280;27766;52.174;5.456;2023-04-27T07:24:10;102109.38;;;8.52;100.00
42111;BME280;27766;52.174;5.456;2023-04-27T07:26:37;102103.16;;;8.66;100.00
42111;BME280;27766;52.174;5.456;2023-04-27T07:29:05;102097.41;;;8.72;100.00
42111;BME280;27766;52.174;5.456;2023-04-27T07:31:51;102098.31;;;8.92;100.00
42111;BME280;27766;52.174;5.456;2023-04-27T07:34:19;102094.31;;;8.99;100.00
42111;BME280;27766;52.174;5.456;2023-04-27T07:36:46;102094.31;;;9.18;100.00
42111;BME280;27766;52.174;5.456;2023-04-27T07:39:13;102081.84;;;9.29;100.00
42111;BME280;27766;52.174;5.456;2023-04-27T07:41:41;102079.06;;;9.25;100.00
42111;BME280;27766;52.174;5.456;2023-04-27T07:44:08;102088.03;;;9.33;100.00
42111;BME280;27766;52.174;5.456;2023-04-27T07:46:35;102085.44;;;9.53;100.00
42111;BME280;27766;52.174;5.456;2023-04-27T07:49:04;102076.34;;;9.62;100.00
42111;BME280;27766;52.174;5.456;2023-04-27T07:51:31;102088.09;;;9.75;88.06
42111;BME280;27766;52.174;5.456;2023-04-27T07:54:04;102074.34;;;9.76;87.54
42111;BME280;27766;52.174;5.456;2023-04-27T07:56:31;102073.34;;;9.73;85.82
42111;BME280;27766;52.174;5.456;2023-04-27T07:58:58;102095.16;;;9.79;83.38
42111;BME280;27766;52.174;5.456;2023-04-27T08:01:26;102071.56;;;9.72;79.67
42111;BME280;27766;52.174;5.456;2023-04-27T08:03:53;102081.88;;;9.93;81.92
42111;BME280;27766;52.174;5.456;2023-04-27T08:06:21;102088.41;;;10.04;70.11
42111;BME280;27766;52.174;5.456;2023-04-27T08:08:50;102082.63;;;10.11;70.84
42111;BME280;27766;52.174;5.456;2023-04-27T08:11:17;102083.59;;;10.13;70.40
42111;BME280;27766;52.174;5.456;2023-04-27T08:13:44;102083.28;;;10.28;68.32
42111;BME280;27766;52.174;5.456;2023-04-27T08:16:11;102088.78;;;10.36;62.39
42111;BME280;27766;52.174;5.456;2023-04-27T08:18:39;102085.88;;;10.28;62.01
42111;BME280;27766;52.174;5.456;2023-04-27T08:21:06;102097.94;;;10.28;64.38
42111;BME280;27766;52.174;5.456;2023-04-27T08:23:33;102089.25;;;10.26;62.50
42111;BME280;27766;52.174;5.456;2023-04-27T08:26:03;102089.59;;;10.35;60.96
42111;BME280;27766;52.174;5.456;2023-04-27T08:28:30;102094.28;;;10.44;64.41
42111;BME280;27766;52.174;5.456;2023-04-27T08:30:58;102086.41;;;10.41;59.80
42111;BME280;27766;52.174;5.456;2023-04-27T08:33:25;102087.88;;;10.57;58.53
42111;BME280;27766;52.174;5.456;2023-04-27T08:35:53;102089.78;;;10.61;58.36
42111;BME280;27766;52.174;5.456;2023-04-27T08:38:21;102078.06;;;10.48;60.29
42111;BME280;27766;52.174;5.456;2023-04-27T08:40:51;102072.34;;;10.57;61.10
42111;BME280;27766;52.174;5.456;2023-04-27T08:43:18;102083.56;;;10.80;56.55
42111;BME280;27766;52.174;5.456;2023-04-27T08:45:48;102087.16;;;10.84;54.14
42111;BME280;27766;52.174;5.456;2023-04-27T08:48:16;102088.03;;;10.84;53.92
42111;BME280;27766;52.174;5.456;2023-04-27T08:50:43;102085.66;;;10.90;54.43
42111;BME280;27766;52.174;5.456;2023-04-27T08:53:21;102079.59;;;10.90;55.60
42111;BME280;27766;52.174;5.456;2023-04-27T08:55:49;102087.16;;;10.84;52.73
42111;BME280;27766;52.174;5.456;2023-04-27T08:58:17;102082.47;;;10.98;53.71
42111;BME280;27766;52.174;5.456;2023-04-27T09:00:45;102068.84;;;11.03;54.76
42111;BME280;27766;52.174;5.456;2023-04-27T09:03:24;102081.16;;;11.09;55.74
42111;BME280;27766;52.174;5.456;2023-04-27T09:05:52;102078.00;;;11.18;52.90
42111;BME280;27766;52.174;5.456;2023-04-27T09:11:27;102079.16;;;11.26;54.82
42111;BME280;27766;52.174;5.456;2023-04-27T09:13:57;102083.13;;;11.42;54.37
42111;BME280;27766;52.174;5.456;2023-04-27T09:16:26;102086.63;;;11.43;52.22
42111;BME280;27766;52.174;5.456;2023-04-27T09:18:56;102089.31;;;11.46;51.67
42111;BME280;27766;52.174;5.456;2023-04-27T09:21:27;102075.75;;;11.53;52.46
42111;BME280;27766;52.174;5.456;2023-04-27T09:23:55;102079.56;;;11.64;50.54
42111;BME280;27766;52.174;5.456;2023-04-27T09:26:25;102075.47;;;11.71;49.44
42111;BME280;27766;52.174;5.456;2023-04-27T09:28:54;102073.91;;;11.76;49.38
42111;BME280;27766;52.174;5.456;2023-04-27T09:31:34;102072.06;;;11.72;49.26
42111;BME280;27766;52.174;5.456;2023-04-27T09:34:02;102068.28;;;11.90;49.24
42111;BME280;27766;52.174;5.456;2023-04-27T09:36:30;102057.19;;;11.94;49.47
42111;BME280;27766;52.174;5.456;2023-04-27T09:39:02;102066.88;;;11.99;51.60
42111;BME280;27766;52.174;5.456;2023-04-27T09:41:32;102057.06;;;12.16;48.98
42111;BME280;27766;52.174;5.456;2023-04-27T09:44:00;102056.59;;;12.30;49.94
42111;BME280;27766;52.174;5.456;2023-04-27T09:46:28;102047.16;;;12.32;47.64
42111;BME280;27766;52.174;5.456;2023-04-27T09:48:56;102058.78;;;12.45;47.85
42111;BME280;27766;52.174;5.456;2023-04-27T09:51:24;102056.91;;;12.41;46.49
42111;BME280;27766;52.174;5.456;2023-04-27T09:53:55;102046.63;;;12.44;47.93
42111;BME280;27766;52.174;5.456;2023-04-27T09:56:51;102045.91;;;12.49;47.21
42111;BME280;27766;52.174;5.456;2023-04-27T10:02:14;102048.75;;;12.57;44.49
42111;BME280;27766;52.174;5.456;2023-04-27T10:07:54;102039.88;;;12.81;46.99
42111;BME280;27766;52.174;5.456;2023-04-27T10:10:21;102042.63;;;12.86;45.33
42111;BME280;27766;52.174;5.456;2023-04-27T10:12:56;102039.25;;;12.90;47.40
42111;BME280;27766;52.174;5.456;2023-04-27T10:15:27;102042.81;;;12.93;46.88
42111;BME280;27766;52.174;5.456;2023-04-27T10:18:01;102042.91;;;12.96;46.77
42111;BME280;27766;52.174;5.456;2023-04-27T10:20:31;102048.31;;;13.04;45.35
42111;BME280;27766;52.174;5.456;2023-04-27T10:22:59;102047.19;;;12.94;43.44
42111;BME280;27766;52.174;5.456;2023-04-27T10:25:28;102047.34;;;13.01;46.00
42111;BME280;27766;52.174;5.456;2023-04-27T10:28:00;102044.53;;;12.61;45.06
42111;BME280;27766;52.174;5.456;2023-04-27T10:30:37;102051.03;;;12.46;45.34
42111;BME280;27766;52.174;5.456;2023-04-27T10:33:07;102047.97;;;12.61;45.66
42111;BME280;27766;52.174;5.456;2023-04-27T10:35:43;102034.41;;;12.70;44.97
42111;BME280;27766;52.174;5.456;2023-04-27T10:38:19;102038.03;;;12.77;45.79
42111;BME280;27766;52.174;5.456;2023-04-27T10:41:02;102028.56;;;12.79;46.16
42111;BME280;27766;52.174;5.456;2023-04-27T10:43:36;102039.09;;;12.83;43.82
42111;BME280;27766;52.174;5.456;2023-04-27T10:46:11;102031.34;;;12.85;45.78
42111;BME280;27766;52.174;5.456;2023-04-27T10:48:39;102037.03;;;13.04;45.16
42111;BME280;27766;52.174;5.456;2023-04-27T10:51:07;102031.97;;;13.08;44.24
42111;BME280;27766;52.174;5.456;2023-04-27T10:53:35;102031.44;;;12.88;43.65
42111;BME280;27766;52.174;5.456;2023-04-27T10:56:04;102023.59;;;12.87;44.19
42111;BME280;27766;52.174;5.456;2023-04-27T10:58:34;102034.28;;;12.67;42.41
42111;BME280;27766;52.174;5.456;2023-04-27T11:01:27;102030.53;;;12.56;43.06
42111;BME280;27766;52.174;5.456;2023-04-27T11:04:00;102030.03;;;12.69;44.28
42111;BME280;27766;52.174;5.456;2023-04-27T11:06:28;102025.25;;;12.83;44.75
42111;BME280;27766;52.174;5.456;2023-04-27T11:09:00;102029.41;;;12.78;45.15
42111;BME280;27766;52.174;5.456;2023-04-27T11:11:27;102013.00;;;12.80;44.93
42111;BME280;27766;52.174;5.456;2023-04-27T11:13:54;102021.03;;;12.88;44.97
42111;BME280;27766;52.174;5.456;2023-04-27T11:16:22;102021.91;;;12.89;43.28
42111;BME280;27766;52.174;5.456;2023-04-27T11:18:50;101994.63;;;12.73;45.99
42111;BME280;27766;52.174;5.456;2023-04-27T11:21:18;102009.44;;;12.77;43.26
42111;BME280;27766;52.174;5.456;2023-04-27T11:23:49;102008.56;;;12.75;44.30
42111;BME280;27766;52.174;5.456;2023-04-27T11:26:19;101993.31;;;12.89;44.28
42111;BME280;27766;52.174;5.456;2023-04-27T11:29:04;101989.50;;;12.76;45.30
42111;BME280;27766;52.174;5.456;2023-04-27T11:31:40;101999.59;;;12.97;45.25
42111;BME280;27766;52.174;5.456;2023-04-27T11:34:14;101999.31;;;12.86;43.86
42111;BME280;27766;52.174;5.456;2023-04-27T11:36:43;101974.00;;;12.79;43.94
42111;BME280;27766;52.174;5.456;2023-04-27T11:39:16;101976.28;;;12.98;42.84
42111;BME280;27766;52.174;5.456;2023-04-27T11:41:47;102004.25;;;13.09;42.22
42111;BME280;27766;52.174;5.456;2023-04-27T11:44:15;101985.25;;;12.78;42.83
42111;BME280;27766;52.174;5.456;2023-04-27T11:46:46;101981.53;;;13.02;42.45
42111;BME280;27766;52.174;5.456;2023-04-27T11:49:13;101983.09;;;13.28;43.31
42111;BME280;27766;52.174;5.456;2023-04-27T11:51:41;101980.00;;;13.80;42.20
42111;BME280;27766;52.174;5.456;2023-04-27T11:54:11;101988.38;;;13.67;41.68
42111;BME280;27766;52.174;5.456;2023-04-27T11:56:40;101975.72;;;13.82;43.19
42111;BME280;27766;52.174;5.456;2023-04-27T11:59:20;101979.44;;;13.93;41.82
42111;BME280;27766;52.174;5.456;2023-04-27T12:01:47;101978.03;;;13.70;40.74
42111;BME280;27766;52.174;5.456;2023-04-27T12:04:15;101972.97;;;13.76;43.97
42111;BME280;27766;52.174;5.456;2023-04-27T12:06:43;101961.66;;;14.14;43.01
42111;BME280;27766;52.174;5.456;2023-04-27T12:09:10;101953.50;;;14.39;43.03
42111;BME280;27766;52.174;5.456;2023-04-27T12:11:38;101965.28;;;14.65;40.91
42111;BME280;27766;52.174;5.456;2023-04-27T12:14:05;101975.28;;;14.87;41.30
42111;BME280;27766;52.174;5.456;2023-04-27T12:16:34;101926.19;;;14.65;40.30
42111;BME280;27766;52.174;5.456;2023-04-27T12:19:01;101967.72;;;15.01;41.08
42111;BME280;27766;52.174;5.456;2023-04-27T12:21:29;101972.03;;;15.01;40.09
42111;BME280;27766;52.174;5.456;2023-04-27T12:23:57;101965.59;;;15.31;39.71
42111;BME280;27766;52.174;5.456;2023-04-27T12:26:25;101969.34;;;15.48;38.52
42111;BME280;27766;52.174;5.456;2023-04-27T12:28:52;101943.72;;;15.21;37.10
42111;BME280;27766;52.174;5.456;2023-04-27T12:31:20;101957.50;;;15.14;38.39
42111;BME280;27766;52.174;5.456;2023-04-27T12:33:56;101936.47;;;15.04;39.50
42111;BME280;27766;52.174;5.456;2023-04-27T12:36:24;101944.69;;;15.28;39.70
42111;BME280;27766;52.174;5.456;2023-04-27T12:38:57;101946.34;;;15.82;40.65
42111;BME280;27766;52.174;5.456;2023-04-27T12:41:25;101926.59;;;15.97;38.59
42111;BME280;27766;52.174;5.456;2023-04-27T12:43:52;101945.66;;;15.34;37.92
42111;BME280;27766;52.174;5.456;2023-04-27T12:46:20;101932.78;;;15.45;38.74
42111;BME280;27766;52.174;5.456;2023-04-27T12:48:47;101930.22;;;15.47;38.31
42111;BME280;27766;52.174;5.456;2023-04-27T12:51:14;101938.06;;;15.48;39.43
42111;BME280;27766;52.174;5.456;2023-04-27T12:53:43;101931.28;;;15.61;39.52
42111;BME280;27766;52.174;5.456;2023-04-27T12:56:10;101929.00;;;15.26;39.37
42111;BME280;27766;52.174;5.456;2023-04-27T12:58:38;101927.06;;;15.71;39.42
42111;BME280;27766;52.174;5.456;2023-04-27T13:01:06;101920.59;;;16.07;38.80
42111;BME280;27766;52.174;5.456;2023-04-27T13:03:46;101926.66;;;16.03;39.54
42111;BME280;27766;52.174;5.456;2023-04-27T13:06:14;101927.69;;;16.18;38.50